Latest Weather Observations for Amberley

IDQ60901

Issued at 4:55 pm EST Thursday 27 November 2014 (issued every 10 minutes, with the page automatically refreshed every 10 minutes)

About weather observations | Map of Brisbane area stations | Latest observations for Brisbane area | Other Formats
Station Details ID: 040004 Name: AMBERLEY AMO Lat: -27.63 Lon: 152.71 Height: 24.2 m
Data from the previous 72 hours. | See also: Recent months at Amberley
Date/Time
EST
Tmp

°C
App
Tmp
°C
Dew
Point
°C
Rel
Hum
%
Delta-T

°C
Wind Press
QNH
hPa
Press
MSL
hPa
Rain
since
9 am
mm
Dir
 
Spd
km/h
Gust
km/h
Spd
kts
Gust
kts
27/04:50pm 21.1 18.9 18.7 86 1.5 E 28 37 15 20 1013.9 - 0.0
27/04:30pm 22.4 14.9 15.9 66 3.9 ESE 50 76 27 41 1013.6 - 0.0
27/04:21pm 24.4 14.6 13.4 50 6.4 SE 57 76 31 41 1013.2 - 0.0
27/04:19pm 24.8 15.3 13.5 49 6.6 SE 56 72 30 39 1013.0 - 0.0
27/04:11pm 29.8 23.7 16.1 43 8.5 ESE 43 70 23 38 1012.5 - 0.0
27/04:10pm 30.7 26.0 16.9 43 8.7 ESE 37 46 20 25 1012.3 - 0.0
27/04:00pm 31.4 27.0 16.7 41 9.3 ENE 35 44 19 24 1011.3 - 0.0
27/03:51pm 32.8 29.7 16.5 37 10.3 ENE 28 43 15 23 1011.0 - 0.0
27/03:30pm 33.6 31.9 12.5 27 12.6 SSE 13 19 7 10 1010.8 - 0.0
27/03:00pm 34.1 32.8 12.6 27 12.9 ESE 11 17 6 9 1010.6 1010.5 0.0
27/02:30pm 33.4 33.0 14.1 31 11.8 SE 9 17 5 9 1011.4 - 0.0
27/02:00pm 33.7 32.1 13.9 30 12.1 S 15 22 8 12 1012.2 - 0.0
27/01:30pm 33.5 31.1 14.3 31 11.8 S 20 28 11 15 1012.7 - 0.0
27/01:00pm 33.2 31.6 15.1 33 11.2 SSE 17 26 9 14 1013.2 - 0.0
27/12:30pm 32.0 31.6 15.2 36 10.4 ESE 11 17 6 9 1013.5 - 0.0
27/12:00pm 31.5 31.5 15.3 37 10.0 W 9 15 5 8 1014.0 1013.9 0.0
27/11:30am 30.6 31.9 16.2 41 9.0 SSW 4 13 2 7 1014.4 - 0.0
27/11:00am 31.2 30.8 15.1 37 9.9 WSW 11 32 6 17 1014.9 - 0.0
27/10:30am 30.3 31.6 17.2 45 8.3 N 6 11 3 6 1015.4 - 0.0
27/10:00am 28.2 27.9 17.4 52 6.8 SW 15 19 8 10 1015.8 - 0.0
27/09:30am 28.9 29.4 17.5 50 7.2 WNW 11 19 6 10 1016.0 - 0.0
27/09:00am 27.8 29.3 18.0 55 6.2 SW 7 13 4 7 1016.3 1016.2 0.0
27/08:30am 26.1 26.8 18.0 61 5.1 SW 11 17 6 9 1016.6 - 0.0
27/08:00am 25.8 27.4 18.2 63 4.8 W 7 11 4 6 1016.8 - 0.0
27/07:30am 24.6 26.7 18.9 70 3.6 WNW 6 11 3 6 1016.8 - 0.0
27/07:00am 24.0 26.2 19.1 74 3.1 SSW 6 9 3 5 1016.7 - 0.0
27/06:30am 22.8 25.2 18.7 77 2.6 SSW 4 9 2 5 1016.4 - 0.0
27/06:00am 21.4 24.0 19.2 87 1.4 SSW 4 7 2 4 1016.2 1016.1 0.0
27/05:30am 20.3 23.6 19.0 92 0.8 CALM 0 0 0 0 1015.9 - 0.0
27/05:00am 19.5 22.4 18.2 92 0.8 CALM 0 0 0 0 1015.8 - 0.0
27/04:30am 20.2 23.2 18.4 89 1.1 CALM 0 0 0 0 1015.5 - 0.0
27/04:00am 20.4 23.5 18.6 89 1.1 CALM 0 2 0 1 1015.4 - 0.0
27/03:30am 20.4 23.4 18.5 89 1.2 CALM 0 0 0 0 1015.1 - 0.0
27/03:00am 20.8 23.9 18.7 88 1.3 CALM 0 0 0 0 1015.0 1014.9 0.0
27/02:30am 21.4 24.5 18.7 84 1.7 CALM 0 0 0 0 1015.1 - 0.0
27/02:00am 21.7 23.7 18.7 83 1.9 SSW 6 11 3 6 1015.3 - 0.0
27/01:30am 21.9 22.1 18.6 81 2.1 SW 15 20 8 11 1015.3 - 0.0
27/01:00am 21.8 22.0 18.6 82 2.0 S 15 19 8 10 1015.4 - 0.0
27/12:30am 21.8 22.5 18.8 83 1.9 SSW 13 17 7 9 1015.7 - 0.0
27/12:00am 22.2 22.8 19.5 85 1.7 S 15 19 8 10 1016.0 1015.9 0.0
 
Date/Time
EST
Tmp

°C
App
Tmp
°C
Dew
Point
°C
Rel
Hum
%
Delta-T

°C
Wind Press
QNH
hPa
Press
MSL
hPa
Rain
since
9 am
mm
Dir
 
Spd
km/h
Gust
km/h
Spd
kts
Gust
kts
26/11:30pm 22.2 23.8 19.2 83 1.9 SSE 9 13 5 7 1016.1 - 0.0
26/11:00pm 22.5 23.5 19.4 82 2.0 SW 13 17 7 9 1016.4 - 0.0
26/10:30pm 22.5 23.8 19.4 82 2.0 W 11 13 6 7 1016.5 - 0.0
26/10:00pm 24.2 27.2 18.5 70 3.6 CALM 0 0 0 0 1016.6 - 0.0
26/09:30pm 23.9 24.8 18.3 71 3.5 NE 11 13 6 7 1016.6 - 0.0
26/09:00pm 23.4 23.8 18.1 72 3.3 E 13 17 7 9 1016.8 1016.7 0.0
26/08:30pm 22.7 22.5 18.6 77 2.6 SE 17 22 9 12 1017.3 - 0.0
26/08:00pm 22.5 21.3 18.3 77 2.6 S 22 30 12 16 1017.4 - 0.0
26/07:30pm 24.2 23.7 15.8 59 5.1 SW 13 17 7 9 1017.1 - 0.0
26/07:00pm 25.3 25.6 15.9 56 5.7 W 9 17 5 9 1017.2 - 0.0
26/06:30pm 26.0 26.1 17.4 59 5.4 NNE 13 19 7 10 1016.6 - 0.0
26/06:00pm 26.2 24.0 17.8 60 5.3 ENE 26 32 14 17 1015.9 1015.8 0.0
26/05:30pm 26.5 25.3 18.3 60 5.2 NE 22 32 12 17 1015.3 - 0.0
26/05:00pm 27.0 25.3 18.2 58 5.6 ENE 24 32 13 17 1014.7 - 0.0
26/04:30pm 27.8 26.1 18.0 55 6.2 ENE 24 33 13 18 1014.2 - 0.0
26/04:00pm 28.9 27.4 17.7 50 7.1 ENE 22 30 12 16 1014.0 - 0.0
26/03:30pm 29.6 27.2 17.3 47 7.8 E 26 35 14 19 1013.7 - 0.0
26/03:00pm 30.3 28.9 17.0 44 8.4 E 20 28 11 15 1013.8 1013.7 0.0
26/02:30pm 30.8 29.4 17.0 43 8.7 ENE 20 30 11 16 1013.9 - 0.0
26/02:00pm 30.0 27.3 16.6 44 8.4 E 26 33 14 18 1014.2 - 0.0
26/01:30pm 30.4 28.9 16.7 43 8.6 E 20 30 11 16 1014.3 - 0.0
26/01:00pm 29.8 28.5 16.7 45 8.2 ENE 19 28 10 15 1014.4 - 0.0
26/12:30pm 30.4 29.1 17.3 45 8.3 E 20 33 11 18 1015.0 - 0.0
26/12:00pm 30.3 30.3 17.2 45 8.3 NE 13 22 7 12 1015.4 1015.3 0.0
26/11:30am 30.4 29.1 16.9 44 8.5 E 19 28 10 15 1015.9 - 0.0
26/11:00am 28.5 27.4 17.4 51 7.0 NE 19 26 10 14 1016.0 - 0.0
26/10:30am 29.2 29.7 18.4 52 6.9 ESE 13 24 7 13 1016.2 - 0.0
26/10:00am 28.0 28.1 19.9 61 5.3 ESE 19 30 10 16 1016.5 - 0.0
26/09:30am 28.5 30.0 19.8 59 5.7 ESE 11 17 6 9 1016.7 - 0.0
26/09:00am 26.7 28.0 20.1 67 4.3 SE 13 19 7 10 1016.8 1016.7 0.4
26/08:30am 26.0 27.2 20.7 72 3.5 SSE 15 19 8 10 1017.0 - 0.4
26/08:00am 24.3 26.1 21.1 82 2.1 SSE 13 17 7 9 1017.2 - 0.4
26/07:30am 23.1 25.4 21.3 90 1.2 SSE 11 15 6 8 1017.0 - 0.2
26/07:11am 22.7 25.3 21.2 91 1.0 S 9 11 5 6 1017.2 - 0.2
26/07:00am 22.7 25.1 21.5 93 0.8 S 11 19 6 10 1017.0 - 0.2
26/06:53am 22.7 24.9 21.8 95 0.6 S 13 19 7 10 1016.9 - 0.2
26/06:35am 22.5 24.8 21.4 93 0.7 SSE 11 15 6 8 1016.9 - 0.0
26/06:30am 22.7 25.0 21.3 92 0.9 S 11 15 6 8 1016.9 - 0.0
26/06:00am 22.8 25.3 21.0 89 1.2 S 9 11 5 6 1016.5 1016.4 0.0
26/05:30am 22.5 24.8 20.7 89 1.2 SSW 9 11 5 6 1016.1 - 0.0
26/05:00am 22.6 25.0 20.1 86 1.6 SSW 7 9 4 5 1015.7 - 0.0
26/04:30am 22.7 24.8 20.1 85 1.7 SSW 9 9 5 5 1015.5 - 0.0
26/04:00am 23.0 24.9 19.7 82 2.1 SSW 9 11 5 6 1015.2 - 0.0
26/03:50am 23.0 25.0 19.9 83 2.0 SSW 9 13 5 7 1015.1 - 0.0
26/03:30am 23.6 25.5 19.0 75 2.9 SSW 7 9 4 5 1014.9 - 0.0
26/03:00am 23.6 25.5 19.0 75 2.9 S 7 9 4 5 1015.0 1014.9 0.0
26/02:37am 24.2 27.0 20.8 81 2.2 ESE 7 9 4 5 1015.0 - 0.0
26/02:30am 24.1 26.9 20.9 82 2.1 ESE 7 9 4 5 1015.0 - 0.0
26/02:00am 24.1 26.5 20.9 82 2.1 SE 9 11 5 6 1015.1 - 0.0
26/01:30am 24.2 26.4 20.5 80 2.4 ENE 9 15 5 8 1015.3 - 0.0
26/01:00am 24.2 26.4 20.4 79 2.5 ENE 9 11 5 6 1015.4 - 0.0
26/12:30am 24.3 25.5 20.0 77 2.8 ESE 13 15 7 8 1015.7 - 0.0
26/12:00am 25.0 26.3 20.1 74 3.2 SE 13 17 7 9 1016.3 1016.2 0.0
 
Date/Time
EST
Tmp

°C
App
Tmp
°C
Dew
Point
°C
Rel
Hum
%
Delta-T

°C
Wind Press
QNH
hPa
Press
MSL
hPa
Rain
since
9 am
mm
Dir
 
Spd
km/h
Gust
km/h
Spd
kts
Gust
kts
25/11:30pm 25.3 26.5 20.6 75 3.1 SSE 15 19 8 10 1016.9 - 0.0
25/11:00pm 25.4 27.5 21.0 76 2.9 SE 11 17 6 9 1017.5 - 0.0
25/10:30pm 25.6 26.9 20.9 75 3.1 SSE 15 17 8 9 1017.5 - 0.0
25/10:00pm 25.6 26.8 20.7 74 3.2 ESE 15 19 8 10 1017.3 - 0.0
25/09:30pm 25.6 26.4 20.7 74 3.2 ESE 17 26 9 14 1017.0 - 0.0
25/09:00pm 25.4 26.2 20.7 75 3.1 ESE 17 24 9 13 1016.3 1016.2 0.0
25/08:30pm 25.6 25.8 20.6 74 3.3 ESE 20 28 11 15 1016.2 - 0.0
25/08:00pm 25.9 24.8 20.2 71 3.7 ESE 26 33 14 18 1015.3 - 0.0
25/07:30pm 26.3 24.7 20.0 68 4.1 ESE 28 37 15 20 1014.5 - 0.0
25/07:00pm 27.1 25.3 19.5 63 4.9 ESE 28 39 15 21 1013.2 - 0.0
25/06:46pm 28.0 24.4 18.6 56 6.0 SSE 35 54 19 29 1013.3 - 0.0
25/06:30pm 28.1 26.3 17.9 54 6.5 ENE 24 35 13 19 1011.6 - 0.0
25/06:00pm 29.1 25.6 16.4 46 7.9 ENE 30 39 16 21 1010.8 1010.7 0.0
25/05:30pm 30.4 26.7 16.1 42 8.9 ENE 30 37 16 20 1010.2 - 0.0
25/05:00pm 31.5 27.8 16.0 39 9.7 ENE 30 35 16 19 1010.1 - 0.0
25/04:30pm 33.1 30.0 15.7 35 10.9 ENE 26 37 14 20 1009.9 - 0.0
25/04:00pm 34.1 31.2 16.0 34 11.4 ENE 26 33 14 18 1009.8 - 0.0
25/03:30pm 34.6 32.1 15.2 31 12.1 ENE 22 30 12 16 1009.8 - 0.0
25/03:00pm 34.5 31.2 15.1 31 12.1 ENE 26 33 14 18 1010.0 1009.9 0.0
25/02:30pm 36.2 33.8 15.4 29 13.1 NE 22 33 12 18 1010.2 - 0.0
25/02:00pm 35.5 32.4 14.6 28 13.0 ENE 24 30 13 16 1010.5 - 0.0
25/01:30pm 35.4 34.6 13.0 26 13.6 S 9 15 5 8 1010.8 - 0.0
25/01:00pm 34.9 34.3 13.6 27 13.0 WNW 9 19 5 10 1011.0 - 0.0
25/12:30pm 33.6 33.2 14.2 31 11.9 SW 9 19 5 10 1011.8 - 0.0
25/12:00pm 33.1 32.6 14.8 33 11.3 W 11 19 6 10 1012.3 1012.2 0.0
25/11:30am 33.0 33.3 15.1 34 11.1 NNE 7 11 4 6 1013.0 - 0.0
25/11:00am 32.0 31.3 15.4 36 10.3 NNW 13 24 7 13 1013.5 - 0.0
25/10:30am 31.4 30.6 15.0 37 10.1 N 13 20 7 11 1014.0 - 0.0
25/10:00am 31.6 31.2 15.2 37 10.1 W 11 17 6 9 1014.4 - 0.0
25/09:30am 30.0 29.0 14.7 39 9.3 NW 13 20 7 11 1015.1 - 0.0
25/09:00am 28.9 26.7 14.5 41 8.7 NNW 19 24 10 13 1015.2 1015.1 0.0
25/08:30am 28.4 27.1 15.7 46 7.8 NNW 17 28 9 15 1015.3 - 0.0
25/08:00am 27.6 26.6 15.7 48 7.3 NNW 15 24 8 13 1015.4 - 0.0
25/07:30am 26.2 24.8 16.5 55 6.0 NNW 19 28 10 15 1015.7 - 0.0
25/07:00am 25.2 24.4 17.1 60 5.0 NNW 17 26 9 14 1015.6 - 0.0
25/06:30am 23.2 24.5 18.4 74 3.0 N 9 13 5 7 1015.5 - 0.0
25/06:00am 22.3 24.3 19.1 82 2.0 ENE 7 11 4 6 1015.2 1015.1 0.0
25/05:30am 20.1 23.0 19.0 93 0.7 N 2 9 1 5 1015.0 - 0.0
25/05:00am 19.9 21.1 18.3 90 1.0 SW 9 15 5 8 1014.8 - 0.0
25/04:30am 19.6 21.2 18.3 92 0.8 SSW 7 15 4 8 1014.1 - 0.0
25/04:00am 19.6 20.9 18.5 93 0.7 NE 9 13 5 7 1013.5 - 0.0
25/03:30am 19.0 21.8 17.9 93 0.7 CALM 0 0 0 0 1013.9 - 0.0
25/03:00am 19.1 21.9 18.0 93 0.7 CALM 0 0 0 0 1013.9 1013.8 0.0
25/02:30am 18.8 21.5 17.8 94 0.6 CALM 0 0 0 0 1013.9 - 0.0
25/02:00am 19.1 22.0 18.1 94 0.6 CALM 0 0 0 0 1013.8 - 0.0
25/01:30am 19.8 22.8 18.5 92 0.8 CALM 0 0 0 0 1013.9 - 0.0
25/01:00am 20.5 23.7 18.9 90 1.0 CALM 0 0 0 0 1014.0 - 0.0
25/12:30am 20.6 23.6 18.4 87 1.4 CALM 0 0 0 0 1014.3 - 0.0
25/12:00am 22.0 25.4 19.3 85 1.7 CALM 0 0 0 0 1014.3 1014.2 0.0
 
Date/Time
EST
Tmp

°C
App
Tmp
°C
Dew
Point
°C
Rel
Hum
%
Delta-T

°C
Wind Press
QNH
hPa
Press
MSL
hPa
Rain
since
9 am
mm
Dir
 
Spd
km/h
Gust
km/h
Spd
kts
Gust
kts
24/11:30pm 22.4 25.8 19.4 83 1.9 CALM 0 0 0 0 1014.3 - 0.0
24/11:00pm 22.9 25.0 19.3 80 2.3 NE 7 9 4 5 1014.5 - 0.0
24/10:30pm 22.7 24.7 19.2 80 2.2 E 7 9 4 5 1014.7 - 0.0
24/10:00pm 23.0 24.6 19.1 78 2.5 E 9 11 5 6 1014.7 - 0.0
24/09:30pm 23.6 24.5 19.2 76 2.8 ENE 13 17 7 9 1014.5 - 0.0
24/09:00pm 23.9 24.3 18.9 73 3.2 E 15 19 8 10 1014.1 1014.0 0.0
24/08:30pm 24.3 24.3 19.0 72 3.4 ENE 17 19 9 10 1013.7 - 0.0
24/08:00pm 24.6 25.1 19.3 72 3.4 ENE 15 20 8 11 1013.2 - 0.0
24/07:30pm 25.0 24.3 19.4 71 3.6 ENE 22 32 12 17 1012.7 - 0.0
24/07:00pm 25.5 24.4 19.4 69 3.9 ENE 24 35 13 19 1012.1 - 0.0
24/06:30pm 26.1 24.1 19.1 65 4.5 ENE 28 35 15 19 1011.7 - 0.0
24/06:00pm 27.1 24.2 18.8 60 5.3 ENE 32 43 17 23 1011.4 1011.3 0.0
24/05:30pm 28.7 25.9 19.0 55 6.3 ENE 32 43 17 23 1011.1 - 0.0
24/05:00pm 29.5 27.4 19.0 53 6.8 ENE 28 39 15 21 1010.8 - 0.0

Latest Capital City Observations: Canberra | Sydney | Melbourne | Brisbane | Adelaide | Perth | Hobart | Darwin

Other Formats:

Comma delimited format used in spreadsheet applications
http://www.bom.gov.au/fwo/IDQ60901/IDQ60901.94568.axf

JavaScript Object Notation format (JSON) in row-major order
http://www.bom.gov.au/fwo/IDQ60901/IDQ60901.94568.json